createdAt,value
2018-09-18T00:00:01.689Z,18.13
2018-09-18T00:01:01.689Z,18.17
2018-09-18T00:02:01.595Z,18.23
2018-09-18T00:03:01.679Z,18.26
2018-09-18T00:04:01.563Z,18.23
2018-09-18T00:05:01.690Z,18.27
2018-09-18T00:06:01.602Z,18.27
2018-09-18T00:07:01.593Z,18.28
2018-09-18T00:08:01.578Z,18.27
2018-09-18T00:09:01.497Z,18.30
2018-09-18T00:10:01.612Z,18.27
2018-09-18T00:11:01.534Z,18.23
2018-09-18T00:12:01.496Z,18.21
2018-09-18T00:13:01.493Z,18.18
2018-09-18T00:14:01.488Z,18.15
2018-09-18T00:15:01.470Z,18.08
2018-09-18T00:16:01.461Z,18.03
2018-09-18T00:17:01.481Z,18.12
2018-09-18T00:18:01.453Z,18.13
2018-09-18T00:19:01.421Z,18.21
2018-09-18T00:20:01.488Z,18.09
2018-09-18T00:21:01.382Z,18.18
2018-09-18T00:22:01.405Z,18.15
2018-09-18T00:23:01.312Z,18.23
2018-09-18T00:24:01.328Z,18.21
2018-09-18T00:25:01.332Z,18.13
2018-09-18T00:26:01.356Z,18.21
2018-09-18T00:27:01.326Z,18.21
2018-09-18T00:28:01.241Z,18.21
2018-09-18T00:29:01.316Z,18.21
2018-09-18T00:30:01.274Z,18.26
2018-09-18T00:31:01.256Z,18.34
2018-09-18T00:32:01.246Z,18.30
2018-09-18T00:33:01.230Z,18.34
2018-09-18T00:34:01.197Z,18.28
2018-09-18T00:35:01.233Z,18.28
2018-09-18T00:36:01.219Z,18.28
2018-09-18T00:37:01.121Z,18.23
2018-09-18T00:38:01.158Z,18.21
2018-09-18T00:39:01.176Z,18.18
2018-09-18T00:40:01.138Z,18.23
2018-09-18T00:41:01.081Z,18.21
2018-09-18T00:42:01.089Z,18.15
2018-09-18T00:43:01.106Z,18.11
2018-09-18T00:44:01.092Z,18.11
2018-09-18T00:45:01.106Z,18.11
2018-09-18T00:46:01.076Z,18.18
2018-09-18T00:47:01.127Z,18.23
2018-09-18T00:48:01.049Z,18.17
2018-09-18T00:49:00.964Z,18.20
2018-09-18T00:50:01.034Z,18.21
2018-09-18T00:51:00.933Z,18.21
2018-09-18T00:52:00.970Z,18.20
2018-09-18T00:53:00.964Z,18.18
2018-09-18T00:54:00.967Z,18.13
2018-09-18T00:55:00.946Z,18.20
2018-09-18T00:56:00.916Z,18.09
2018-09-18T00:57:00.926Z,18.13
2018-09-18T00:58:00.829Z,18.20
2018-09-18T00:59:00.896Z,18.12
2018-09-18T01:00:00.839Z,18.11
2018-09-18T01:01:00.882Z,18.13
2018-09-18T01:02:00.861Z,18.18
2018-09-18T01:03:00.848Z,18.09
2018-09-18T01:04:00.845Z,18.15
2018-09-18T01:05:00.818Z,18.15
2018-09-18T01:06:00.795Z,18.12
2018-09-18T01:07:00.709Z,18.11
2018-09-18T01:08:00.769Z,17.99
2018-09-18T01:09:00.768Z,18.15
2018-09-18T01:10:00.708Z,18.15
2018-09-18T01:11:00.669Z,18.11
2018-09-18T01:12:00.689Z,18.12
2018-09-18T01:13:00.684Z,18.12
2018-09-18T01:14:00.689Z,18.11
2018-09-18T01:15:00.659Z,18.11
2018-09-18T01:16:00.678Z,18.17
2018-09-18T01:17:00.652Z,18.09
2018-09-18T01:18:00.625Z,18.17
2018-09-18T01:19:00.581Z,18.15
2018-09-18T01:20:00.634Z,18.18
2018-09-18T01:21:00.512Z,18.18
2018-09-18T01:22:00.597Z,18.24
2018-09-18T01:23:00.629Z,18.17
2018-09-18T01:24:00.550Z,18.24
2018-09-18T01:25:00.506Z,18.24
2018-09-18T01:26:00.539Z,18.13
2018-09-18T01:27:00.504Z,18.20
2018-09-18T01:28:00.517Z,18.11
2018-09-18T01:29:00.482Z,18.20
2018-09-18T01:30:00.395Z,18.06
2018-09-18T01:31:00.460Z,18.09
2018-09-18T01:32:00.412Z,18.12
2018-09-18T01:33:00.384Z,18.17
2018-09-18T01:34:00.408Z,18.15
2018-09-18T01:35:00.383Z,18.13
2018-09-18T01:36:00.330Z,18.17
2018-09-18T01:37:00.343Z,18.05
2018-09-18T01:38:00.423Z,18.05
2018-09-18T01:39:00.302Z,18.01
2018-09-18T01:40:00.324Z,17.91
2018-09-18T01:41:00.330Z,17.90
2018-09-18T01:42:00.222Z,17.84
2018-09-18T01:43:00.288Z,17.88
2018-09-18T01:44:00.227Z,17.90
2018-09-18T01:45:00.269Z,17.88
2018-09-18T01:46:00.227Z,17.96
2018-09-18T01:47:00.238Z,17.93
2018-09-18T01:48:00.155Z,18.03
2018-09-18T01:49:00.165Z,18.02
2018-09-18T01:50:00.164Z,18.02
2018-09-18T01:51:00.148Z,17.91
2018-09-18T01:52:00.118Z,17.91
2018-09-18T01:53:00.159Z,17.90
2018-09-18T01:54:00.069Z,17.97
2018-09-18T01:55:00.096Z,17.96
2018-09-18T01:56:00.075Z,18.01
2018-09-18T01:57:00.070Z,18.03
2018-09-18T01:58:00.114Z,18.08
2018-09-18T01:59:00.139Z,18.01
2018-09-18T02:00:00.063Z,17.99
2018-09-18T02:01:00.039Z,17.97
2018-09-18T02:01:59.942Z,18.03
2018-09-18T02:03:00.002Z,17.97
2018-09-18T02:04:00.060Z,18.02
2018-09-18T02:04:59.944Z,17.90
2018-09-18T02:05:59.971Z,17.93
2018-09-18T02:06:59.977Z,17.87
2018-09-18T02:07:59.946Z,17.93
2018-09-18T02:08:59.932Z,17.90
2018-09-18T02:09:59.933Z,17.97
2018-09-18T02:10:59.840Z,17.96
2018-09-18T02:11:59.810Z,17.97
2018-09-18T02:12:59.790Z,17.81
2018-09-18T02:13:59.777Z,17.88
2018-09-18T02:14:59.763Z,17.86
2018-09-18T02:15:59.750Z,17.87
2018-09-18T02:16:59.737Z,17.75
2018-09-18T02:17:59.722Z,17.86
2018-09-18T02:18:59.709Z,17.76
2018-09-18T02:19:59.694Z,17.78
2018-09-18T02:20:59.681Z,17.86
2018-09-18T02:21:59.666Z,17.83
2018-09-18T02:22:59.688Z,17.72
2018-09-18T02:23:59.641Z,17.73
2018-09-18T02:24:59.625Z,17.76
2018-09-18T02:25:59.611Z,17.71
2018-09-18T02:26:59.597Z,17.69
2018-09-18T02:27:59.597Z,17.76
2018-09-18T02:28:59.571Z,17.78
2018-09-18T02:29:59.565Z,17.71
2018-09-18T02:30:59.542Z,17.69
2018-09-18T02:31:59.537Z,17.63
2018-09-18T02:32:59.519Z,17.62
2018-09-18T02:33:59.500Z,17.62
2018-09-18T02:34:59.488Z,17.59
2018-09-18T02:35:59.472Z,17.59
2018-09-18T02:36:59.465Z,17.65
2018-09-18T02:37:59.490Z,17.56
2018-09-18T02:38:59.430Z,17.53
2018-09-18T02:39:59.419Z,17.53
2018-09-18T02:40:59.417Z,17.54
2018-09-18T02:41:59.392Z,17.49
2018-09-18T02:42:59.379Z,17.53
2018-09-18T02:43:59.362Z,17.54
2018-09-18T02:44:59.351Z,17.56
2018-09-18T02:45:59.333Z,17.53
2018-09-18T02:46:59.320Z,17.52
2018-09-18T02:47:59.309Z,17.52
2018-09-18T02:48:59.295Z,17.52
2018-09-18T02:49:59.286Z,17.53
2018-09-18T02:50:59.266Z,17.54
2018-09-18T02:51:59.256Z,17.57
2018-09-18T02:52:59.244Z,17.50
2018-09-18T02:53:59.223Z,17.53
2018-09-18T02:54:59.210Z,17.50
2018-09-18T02:55:59.196Z,17.50
2018-09-18T02:56:59.182Z,17.50
2018-09-18T02:57:59.167Z,17.49
2018-09-18T02:58:59.160Z,17.56
2018-09-18T02:59:59.142Z,17.52
2018-09-18T03:00:59.127Z,17.54
2018-09-18T03:01:59.112Z,17.53
2018-09-18T03:02:59.100Z,17.57
2018-09-18T03:03:59.087Z,17.59
2018-09-18T03:04:59.071Z,17.50
2018-09-18T03:05:59.058Z,17.50
2018-09-18T03:06:59.042Z,17.50
2018-09-18T03:07:59.030Z,17.45
2018-09-18T03:08:59.022Z,17.53
2018-09-18T03:09:59.007Z,17.47
2018-09-18T03:10:58.992Z,17.50
2018-09-18T03:11:58.974Z,17.50
2018-09-18T03:12:58.957Z,17.49
2018-09-18T03:13:58.947Z,17.57
2018-09-18T03:14:58.931Z,17.50
2018-09-18T03:15:58.918Z,17.56
2018-09-18T03:16:58.906Z,17.52
2018-09-18T03:17:58.891Z,17.46
2018-09-18T03:18:58.874Z,17.47
2018-09-18T03:19:58.900Z,17.52
2018-09-18T03:20:58.857Z,17.43
2018-09-18T03:21:58.833Z,17.49
2018-09-18T03:22:58.819Z,17.38
2018-09-18T03:23:58.806Z,17.37
2018-09-18T03:24:58.791Z,17.35
2018-09-18T03:25:58.819Z,17.43
2018-09-18T03:26:58.796Z,17.39
2018-09-18T03:27:58.749Z,17.39
2018-09-18T03:28:58.733Z,17.39
2018-09-18T03:29:58.718Z,17.38
2018-09-18T03:30:58.706Z,17.37
2018-09-18T03:31:58.694Z,17.34
2018-09-18T03:32:58.685Z,17.37
2018-09-18T03:33:58.664Z,17.35
2018-09-18T03:34:58.651Z,17.35
2018-09-18T03:35:58.637Z,17.32
2018-09-18T03:36:58.624Z,17.30
2018-09-18T03:37:58.609Z,17.25
2018-09-18T03:38:58.597Z,17.30
2018-09-18T03:39:58.581Z,17.24
2018-09-18T03:40:58.567Z,17.30
2018-09-18T03:41:58.553Z,17.25
2018-09-18T03:42:58.540Z,17.30
2018-09-18T03:43:58.524Z,17.22
2018-09-18T03:44:58.512Z,17.28
2018-09-18T03:45:58.496Z,17.27
2018-09-18T03:46:58.481Z,17.28
2018-09-18T03:47:58.469Z,17.27
2018-09-18T03:48:58.453Z,17.25
2018-09-18T03:49:58.444Z,17.32
2018-09-18T03:50:58.426Z,17.34
2018-09-18T03:51:58.415Z,17.22
2018-09-18T03:52:58.398Z,17.28
2018-09-18T03:53:58.403Z,17.31
2018-09-18T03:54:58.369Z,17.27
2018-09-18T03:55:58.356Z,17.31
2018-09-18T03:56:58.340Z,17.27
2018-09-18T03:57:58.330Z,17.25
2018-09-18T03:58:58.341Z,17.27
2018-09-18T03:59:58.298Z,17.30
2018-09-18T04:00:58.286Z,17.27
2018-09-18T04:01:58.271Z,17.30
2018-09-18T04:02:58.344Z,17.27
2018-09-18T04:03:58.245Z,17.17
2018-09-18T04:04:58.228Z,17.19
2018-09-18T04:05:58.219Z,17.17
2018-09-18T04:06:58.205Z,17.14
2018-09-18T04:07:58.186Z,17.24
2018-09-18T04:08:58.176Z,17.17
2018-09-18T04:09:58.164Z,17.13
2018-09-18T04:10:58.143Z,17.07
2018-09-18T04:11:58.129Z,17.10
2018-09-18T04:12:58.118Z,17.09
2018-09-18T04:13:58.105Z,17.06
2018-09-18T04:14:58.088Z,17.10
2018-09-18T04:15:58.073Z,16.99
2018-09-18T04:16:58.061Z,16.98
2018-09-18T04:17:58.052Z,16.97
2018-09-18T04:18:58.031Z,16.98
2018-09-18T04:19:58.023Z,16.98
2018-09-18T04:20:58.005Z,17.01
2018-09-18T04:21:57.990Z,16.98
2018-09-18T04:22:57.976Z,16.99
2018-09-18T04:23:57.961Z,16.98
2018-09-18T04:24:57.946Z,16.84
2018-09-18T04:25:57.931Z,16.90
2018-09-18T04:26:57.918Z,16.82
2018-09-18T04:27:57.904Z,16.94
2018-09-18T04:28:57.892Z,16.98
2018-09-18T04:29:57.874Z,16.94
2018-09-18T04:30:57.876Z,16.94
2018-09-18T04:31:57.846Z,16.87
2018-09-18T04:32:57.833Z,16.84
2018-09-18T04:33:57.822Z,16.92
2018-09-18T04:34:57.804Z,16.79
2018-09-18T04:35:57.790Z,16.84
2018-09-18T04:36:57.787Z,16.77
2018-09-18T04:37:57.773Z,16.69
2018-09-18T04:38:57.746Z,16.84
2018-09-18T04:39:57.733Z,16.70
2018-09-18T04:40:57.718Z,16.76
2018-09-18T04:41:57.708Z,16.74
2018-09-18T04:42:57.688Z,16.80
2018-09-18T04:43:57.673Z,16.72
2018-09-18T04:44:57.668Z,16.69
2018-09-18T04:45:57.781Z,16.74
2018-09-18T04:46:57.634Z,16.72
2018-09-18T04:47:57.620Z,16.72
2018-09-18T04:48:57.603Z,16.69
2018-09-18T04:49:57.588Z,16.79
2018-09-18T04:50:57.577Z,16.69
2018-09-18T04:51:57.560Z,16.70
2018-09-18T04:52:57.547Z,16.69
2018-09-18T04:53:57.534Z,16.62
2018-09-18T04:54:57.592Z,16.74
2018-09-18T04:55:57.504Z,16.74
2018-09-18T04:56:57.495Z,16.76
2018-09-18T04:57:57.474Z,16.77
2018-09-18T04:58:57.461Z,16.76
2018-09-18T04:59:57.454Z,16.73
2018-09-18T05:00:57.431Z,16.57
2018-09-18T05:01:57.441Z,16.64
2018-09-18T05:02:57.401Z,16.69
2018-09-18T05:03:57.396Z,16.72
2018-09-18T05:04:57.374Z,16.72
2018-09-18T05:05:57.363Z,16.67
2018-09-18T05:06:57.343Z,16.67
2018-09-18T05:07:57.328Z,16.61
2018-09-18T05:08:57.318Z,16.57
2018-09-18T05:09:57.306Z,16.55
2018-09-18T05:10:57.288Z,16.55
2018-09-18T05:11:57.275Z,16.54
2018-09-18T05:12:57.259Z,16.54
2018-09-18T05:13:57.258Z,16.51
2018-09-18T05:14:57.229Z,16.54
2018-09-18T05:15:57.215Z,16.58
2018-09-18T05:16:57.201Z,16.52
2018-09-18T05:17:57.187Z,16.51
2018-09-18T05:18:57.170Z,16.47
2018-09-18T05:19:57.161Z,16.51
2018-09-18T05:20:57.141Z,16.57
2018-09-18T05:21:57.136Z,16.57
2018-09-18T05:22:57.117Z,16.49
2018-09-18T05:23:57.098Z,16.54
2018-09-18T05:24:57.084Z,16.59
2018-09-18T05:25:57.069Z,16.54
2018-09-18T05:26:57.056Z,16.54
2018-09-18T05:27:57.040Z,16.52
2018-09-18T05:28:57.027Z,16.57
2018-09-18T05:29:57.016Z,16.52
2018-09-18T05:30:56.998Z,16.54
2018-09-18T05:31:56.985Z,16.49
2018-09-18T05:32:56.970Z,16.54
2018-09-18T05:33:56.955Z,16.55
2018-09-18T05:34:56.940Z,16.57
2018-09-18T05:35:56.925Z,16.58
2018-09-18T05:36:56.916Z,16.58
2018-09-18T05:37:56.897Z,16.58
2018-09-18T05:38:56.883Z,16.59
2018-09-18T05:39:56.869Z,16.62
2018-09-18T05:40:56.855Z,16.61
2018-09-18T05:41:56.870Z,16.67
2018-09-18T05:42:56.827Z,16.69
2018-09-18T05:43:56.811Z,16.69
2018-09-18T05:44:56.796Z,16.72
2018-09-18T05:45:56.782Z,16.72
2018-09-18T05:46:56.766Z,16.77
2018-09-18T05:47:56.759Z,16.70
2018-09-18T05:48:56.740Z,16.76
2018-09-18T05:49:56.724Z,16.73
2018-09-18T05:50:56.711Z,16.79
2018-09-18T05:51:56.700Z,16.83
2018-09-18T05:52:56.685Z,16.87
2018-09-18T05:53:56.673Z,16.92
2018-09-18T05:54:56.659Z,16.94
2018-09-18T05:55:56.641Z,16.92
2018-09-18T05:56:56.629Z,16.97
2018-09-18T05:57:56.622Z,16.99
2018-09-18T05:58:56.596Z,17.04
2018-09-18T05:59:56.584Z,17.07
2018-09-18T06:00:56.573Z,17.10
2018-09-18T06:01:56.557Z,17.12
2018-09-18T06:02:56.538Z,17.10
2018-09-18T06:03:56.528Z,17.24
2018-09-18T06:04:56.510Z,17.13
2018-09-18T06:05:56.502Z,17.22
2018-09-18T06:06:56.484Z,17.20
2018-09-18T06:07:56.473Z,17.30
2018-09-18T06:08:56.452Z,17.28
2018-09-18T06:09:56.439Z,17.30
2018-09-18T06:10:56.424Z,17.39
2018-09-18T06:11:56.414Z,17.31
2018-09-18T06:12:56.401Z,17.41
2018-09-18T06:13:56.383Z,17.46
2018-09-18T06:14:56.372Z,17.50
2018-09-18T06:15:56.354Z,17.45
2018-09-18T06:16:56.342Z,17.47
2018-09-18T06:17:56.325Z,17.52
2018-09-18T06:18:56.365Z,17.59
2018-09-18T06:19:56.301Z,17.62
2018-09-18T06:20:56.284Z,17.66
2018-09-18T06:21:56.280Z,17.66
2018-09-18T06:22:56.257Z,17.75
2018-09-18T06:23:56.244Z,17.84
2018-09-18T06:24:56.230Z,17.79
2018-09-18T06:25:56.215Z,17.83
2018-09-18T06:26:56.223Z,17.86
2018-09-18T06:27:56.186Z,17.87
2018-09-18T06:28:56.173Z,17.83
2018-09-18T06:29:56.159Z,17.99
2018-09-18T06:30:56.150Z,17.99
2018-09-18T06:31:56.133Z,18.12
2018-09-18T06:32:56.128Z,18.15
2018-09-18T06:33:56.104Z,18.24
2018-09-18T06:34:56.092Z,18.24
2018-09-18T06:35:56.077Z,18.28
2018-09-18T06:36:56.094Z,18.36
2018-09-18T06:37:56.050Z,18.45
2018-09-18T06:38:56.050Z,18.42
2018-09-18T06:39:56.028Z,18.57
2018-09-18T06:40:56.016Z,18.60
2018-09-18T06:41:56.000Z,18.67
2018-09-18T06:42:55.992Z,18.75
2018-09-18T06:43:55.974Z,18.76
2018-09-18T06:44:55.961Z,18.86
2018-09-18T06:45:55.945Z,18.96
2018-09-18T06:46:55.932Z,18.96
2018-09-18T06:47:55.973Z,19.13
2018-09-18T06:48:55.915Z,19.31
2018-09-18T06:49:55.897Z,19.42
2018-09-18T06:50:55.894Z,19.63
2018-09-18T06:51:55.878Z,19.94
2018-09-18T06:52:55.870Z,20.36
2018-09-18T06:53:55.860Z,20.68
2018-09-18T06:54:55.848Z,21.29
2018-09-18T06:55:55.840Z,21.85
2018-09-18T06:56:55.830Z,22.12
2018-09-18T06:57:55.826Z,22.11
2018-09-18T06:58:55.814Z,22.36
2018-09-18T06:59:55.818Z,22.34
2018-09-18T07:00:55.799Z,22.61
2018-09-18T07:01:55.794Z,22.73
2018-09-18T07:02:55.789Z,22.85
2018-09-18T07:03:55.780Z,22.95
2018-09-18T07:04:55.773Z,22.62
2018-09-18T07:05:55.777Z,22.66
2018-09-18T07:06:55.760Z,22.96
2018-09-18T07:07:55.756Z,23.22
2018-09-18T07:08:55.755Z,23.44
2018-09-18T07:09:55.752Z,23.70
2018-09-18T07:10:55.746Z,23.70
2018-09-18T07:11:55.744Z,23.66
2018-09-18T07:12:55.739Z,23.88
2018-09-18T07:13:55.736Z,23.52
2018-09-18T07:14:55.728Z,23.36
2018-09-18T07:15:55.725Z,23.64
2018-09-18T07:16:55.723Z,24.06
2018-09-18T07:17:55.773Z,24.21
2018-09-18T07:18:55.722Z,24.13
2018-09-18T07:19:55.725Z,24.43
2018-09-18T07:20:55.719Z,24.34
2018-09-18T07:21:55.719Z,24.62
2018-09-18T07:22:55.717Z,24.91
2018-09-18T07:23:55.718Z,25.33
2018-09-18T07:24:55.788Z,25.61
2018-09-18T07:25:55.717Z,25.61
2018-09-18T07:26:55.718Z,25.64
2018-09-18T07:27:55.721Z,25.90
2018-09-18T07:28:55.723Z,26.07
2018-09-18T07:29:55.723Z,25.66
2018-09-18T07:30:55.721Z,25.52
2018-09-18T07:31:55.722Z,25.95
2018-09-18T07:32:55.732Z,26.46
2018-09-18T07:33:55.758Z,26.95
2018-09-18T07:34:55.732Z,26.90
2018-09-18T07:35:55.732Z,27.10
2018-09-18T07:36:55.735Z,27.17
2018-09-18T07:37:55.735Z,27.08
2018-09-18T07:38:55.740Z,27.38
2018-09-18T07:39:55.745Z,27.85
2018-09-18T07:40:55.765Z,27.78
2018-09-18T07:41:55.748Z,28.20
2018-09-18T07:42:55.750Z,28.47
2018-09-18T07:43:55.758Z,28.15
2018-09-18T07:44:55.760Z,28.38
2018-09-18T07:45:55.764Z,28.79
2018-09-18T07:46:55.766Z,28.72
2018-09-18T07:47:55.772Z,28.37
2018-09-18T07:48:55.780Z,28.31
2018-09-18T07:49:55.784Z,29.24
2018-09-18T07:50:55.786Z,28.61
2018-09-18T07:51:55.792Z,28.49
2018-09-18T07:52:55.793Z,29.27
2018-09-18T07:53:55.796Z,29.50
2018-09-18T07:54:55.808Z,30.18
2018-09-18T07:55:55.818Z,30.10
2018-09-18T07:56:55.817Z,29.84
2018-09-18T07:57:55.817Z,30.88
2018-09-18T07:58:55.826Z,30.40
2018-09-18T07:59:55.824Z,30.28
2018-09-18T08:00:55.831Z,29.58
2018-09-18T08:01:55.835Z,29.61
2018-09-18T08:02:55.848Z,30.28
2018-09-18T08:03:55.848Z,31.14
2018-09-18T08:04:55.851Z,31.66
2018-09-18T08:05:55.859Z,31.61
2018-09-18T08:06:55.861Z,31.91
2018-09-18T08:07:55.867Z,31.64
2018-09-18T08:08:55.874Z,32.46
2018-09-18T08:09:55.876Z,32.58
2018-09-18T08:10:55.899Z,32.20
2018-09-18T08:11:55.888Z,31.02
2018-09-18T08:12:55.904Z,30.95
2018-09-18T08:13:55.903Z,31.29
2018-09-18T08:14:55.906Z,30.82
2018-09-18T08:15:55.913Z,31.01
2018-09-18T08:16:55.920Z,31.57
2018-09-18T08:17:55.924Z,31.60
2018-09-18T08:18:56.120Z,31.57
2018-09-18T08:19:55.942Z,31.01
2018-09-18T08:20:55.941Z,32.02
2018-09-18T08:21:55.951Z,32.64
2018-09-18T08:22:55.962Z,32.46
2018-09-18T08:23:55.963Z,32.26
2018-09-18T08:24:55.969Z,32.26
2018-09-18T08:25:55.971Z,31.81
2018-09-18T08:26:55.991Z,31.95
2018-09-18T08:27:55.984Z,31.79
2018-09-18T08:28:55.992Z,31.57
2018-09-18T08:29:55.997Z,31.56
2018-09-18T08:30:56.005Z,32.61
2018-09-18T08:31:56.011Z,33.09
2018-09-18T08:32:56.074Z,33.10
2018-09-18T08:33:56.039Z,33.14
2018-09-18T08:34:56.026Z,33.54
2018-09-18T08:35:56.033Z,33.98
2018-09-18T08:36:56.038Z,34.59
2018-09-18T08:37:56.045Z,35.16
2018-09-18T08:38:56.051Z,34.63
2018-09-18T08:39:56.199Z,34.63
2018-09-18T08:40:56.066Z,33.41
2018-09-18T08:41:56.083Z,32.95
2018-09-18T08:42:56.077Z,33.13
2018-09-18T08:43:56.081Z,32.99
2018-09-18T08:44:56.091Z,33.27
2018-09-18T08:45:56.133Z,34.16
2018-09-18T08:46:56.101Z,34.92
2018-09-18T08:47:56.113Z,35.48
2018-09-18T08:48:56.121Z,35.66
2018-09-18T08:49:56.125Z,33.76
2018-09-18T08:50:56.136Z,34.13
2018-09-18T08:51:56.231Z,34.30
2018-09-18T08:52:56.201Z,34.87
2018-09-18T08:53:56.153Z,34.50
2018-09-18T08:54:56.161Z,33.95
2018-09-18T08:55:56.186Z,32.65
2018-09-18T08:56:56.163Z,32.85
2018-09-18T08:57:56.168Z,32.41
2018-09-18T08:58:56.176Z,33.51
2018-09-18T08:59:56.180Z,34.42
2018-09-18T09:00:56.187Z,35.09
2018-09-18T09:01:56.193Z,35.79
2018-09-18T09:02:56.197Z,36.20
2018-09-18T09:03:56.203Z,34.42
2018-09-18T09:04:56.266Z,34.29
2018-09-18T09:05:56.276Z,34.07
2018-09-18T09:06:56.244Z,34.00
2018-09-18T09:07:56.312Z,33.70
2018-09-18T09:08:56.462Z,34.38
2018-09-18T09:09:56.283Z,34.48
2018-09-18T09:10:56.351Z,35.36
2018-09-18T09:11:56.258Z,36.19
2018-09-18T09:12:56.249Z,36.30
2018-09-18T09:13:56.250Z,35.17
2018-09-18T09:14:56.348Z,35.12
2018-09-18T09:15:56.276Z,34.34
2018-09-18T09:16:56.264Z,33.91
2018-09-18T09:17:56.362Z,33.42
2018-09-18T09:18:56.271Z,33.39
2018-09-18T09:19:56.288Z,33.27
2018-09-18T09:20:56.376Z,32.88
2018-09-18T09:21:56.369Z,32.90
2018-09-18T09:22:56.494Z,32.36
2018-09-18T09:23:56.296Z,32.87
2018-09-18T09:24:56.313Z,33.64
2018-09-18T09:25:56.314Z,33.81
2018-09-18T09:26:56.314Z,34.25
2018-09-18T09:27:56.389Z,34.26
2018-09-18T09:28:56.312Z,34.64
2018-09-18T09:29:56.365Z,35.07
2018-09-18T09:30:56.305Z,35.42
2018-09-18T09:31:56.320Z,35.35
2018-09-18T09:32:56.312Z,35.94
2018-09-18T09:33:56.312Z,36.40
2018-09-18T09:34:56.324Z,36.70
2018-09-18T09:35:56.311Z,37.12
2018-09-18T09:36:56.353Z,37.30
2018-09-18T09:37:56.321Z,37.23
2018-09-18T09:38:56.418Z,37.34
2018-09-18T09:39:56.319Z,37.73
2018-09-18T09:40:56.328Z,38.01
2018-09-18T09:41:56.322Z,37.54
2018-09-18T09:42:56.324Z,37.03
2018-09-18T09:43:56.328Z,37.08
2018-09-18T09:44:56.397Z,36.54
2018-09-18T09:45:56.331Z,36.35
2018-09-18T09:46:56.329Z,36.27
2018-09-18T09:47:56.331Z,36.32
2018-09-18T09:48:56.337Z,36.69
2018-09-18T09:49:56.332Z,36.70
2018-09-18T09:50:56.332Z,36.60
2018-09-18T09:51:56.340Z,36.94
2018-09-18T09:52:56.337Z,36.76
2018-09-18T09:53:56.338Z,35.97
2018-09-18T09:54:56.339Z,36.14
2018-09-18T09:55:56.338Z,35.54
2018-09-18T09:56:56.366Z,35.19
2018-09-18T09:57:56.340Z,34.86
2018-09-18T09:58:56.345Z,35.09
2018-09-18T09:59:56.340Z,35.56
2018-09-18T10:00:56.341Z,35.58
2018-09-18T10:01:56.344Z,35.72
2018-09-18T10:02:56.397Z,36.06
2018-09-18T10:03:56.342Z,36.27
2018-09-18T10:04:56.343Z,36.33
2018-09-18T10:05:56.339Z,36.32
2018-09-18T10:06:56.353Z,35.79
2018-09-18T10:07:56.345Z,35.19
2018-09-18T10:08:56.343Z,34.57
2018-09-18T10:09:56.353Z,34.80
2018-09-18T10:10:56.540Z,35.07
2018-09-18T10:11:56.343Z,35.04
2018-09-18T10:12:56.344Z,35.09
2018-09-18T10:13:56.343Z,35.16
2018-09-18T10:14:56.347Z,35.23
2018-09-18T10:15:56.343Z,34.44
2018-09-18T10:16:56.340Z,34.22
2018-09-18T10:17:56.510Z,34.16
2018-09-18T10:18:56.336Z,34.00
2018-09-18T10:19:56.341Z,34.35
2018-09-18T10:20:56.337Z,34.50
2018-09-18T10:21:56.336Z,34.78
2018-09-18T10:22:56.333Z,34.94
2018-09-18T10:23:56.353Z,34.97
2018-09-18T10:24:56.365Z,34.44
2018-09-18T10:25:56.347Z,34.19
2018-09-18T10:26:56.495Z,34.03
2018-09-18T10:27:56.345Z,34.16
2018-09-18T10:28:56.329Z,34.01
2018-09-18T10:29:56.327Z,34.15
2018-09-18T10:30:56.331Z,34.18
2018-09-18T10:31:56.326Z,34.32
2018-09-18T10:32:56.335Z,34.37
2018-09-18T10:33:56.347Z,34.47
2018-09-18T10:34:56.341Z,34.38
2018-09-18T10:35:56.340Z,34.38
2018-09-18T10:36:56.349Z,34.47
2018-09-18T10:37:56.322Z,34.50
2018-09-18T10:38:56.321Z,34.53
2018-09-18T10:39:56.346Z,34.57
2018-09-18T10:40:56.452Z,34.44
2018-09-18T10:41:56.342Z,34.38
2018-09-18T10:42:56.377Z,34.35
2018-09-18T10:43:56.312Z,34.47
2018-09-18T10:44:56.320Z,34.25
2018-09-18T10:45:56.315Z,34.19
2018-09-18T10:46:56.309Z,33.92
2018-09-18T10:47:56.326Z,34.00
2018-09-18T10:48:56.311Z,33.93
2018-09-18T10:49:56.306Z,34.06
2018-09-18T10:50:56.304Z,34.22
2018-09-18T10:51:56.304Z,34.22
2018-09-18T10:52:56.303Z,34.10
2018-09-18T10:53:56.307Z,34.10
2018-09-18T10:54:56.296Z,34.26
2018-09-18T10:55:56.294Z,34.28
2018-09-18T10:56:56.295Z,34.26
2018-09-18T10:57:56.291Z,34.19
2018-09-18T10:58:56.292Z,34.28
2018-09-18T10:59:56.292Z,34.20
2018-09-18T11:00:56.287Z,34.22
2018-09-18T11:01:56.347Z,34.22
2018-09-18T11:02:56.296Z,34.15
2018-09-18T11:03:56.288Z,34.03
2018-09-18T11:04:56.303Z,34.20
2018-09-18T11:05:56.284Z,34.23
2018-09-18T11:06:56.416Z,34.25
2018-09-18T11:07:56.401Z,34.22
2018-09-18T11:08:56.324Z,34.00
2018-09-18T11:09:56.288Z,34.01
2018-09-18T11:10:56.275Z,33.98
2018-09-18T11:11:56.294Z,34.04
2018-09-18T11:12:56.270Z,33.89
2018-09-18T11:13:56.316Z,33.71
2018-09-18T11:14:56.300Z,33.55
2018-09-18T11:15:56.382Z,33.64
2018-09-18T11:16:56.282Z,33.67
2018-09-18T11:17:56.252Z,33.48
2018-09-18T11:18:56.293Z,33.30
2018-09-18T11:19:56.298Z,33.35
2018-09-18T11:20:56.253Z,33.42
2018-09-18T11:21:56.269Z,33.24
2018-09-18T11:22:56.239Z,33.55
2018-09-18T11:23:56.321Z,33.64
2018-09-18T11:24:56.281Z,33.86
2018-09-18T11:25:56.252Z,33.85
2018-09-18T11:26:56.243Z,33.86
2018-09-18T11:27:56.222Z,34.08
2018-09-18T11:28:56.213Z,34.22
2018-09-18T11:29:56.257Z,34.25
2018-09-18T11:30:56.206Z,34.41
2018-09-18T11:31:56.222Z,34.45
2018-09-18T11:32:56.363Z,34.52
2018-09-18T11:33:56.203Z,34.64
2018-09-18T11:34:56.205Z,34.85
2018-09-18T11:35:56.192Z,34.78
2018-09-18T11:36:56.188Z,34.76
2018-09-18T11:37:56.187Z,34.63
2018-09-18T11:38:56.184Z,34.59
2018-09-18T11:39:56.181Z,34.53
2018-09-18T11:40:56.178Z,34.40
2018-09-18T11:41:56.176Z,34.30
2018-09-18T11:42:56.173Z,34.19
2018-09-18T11:43:56.175Z,34.03
2018-09-18T11:44:56.169Z,34.03
2018-09-18T11:45:56.307Z,33.92
2018-09-18T11:46:56.169Z,33.92
2018-09-18T11:47:56.164Z,33.84
2018-09-18T11:48:56.155Z,33.67
2018-09-18T11:49:56.165Z,33.69
2018-09-18T11:50:56.166Z,33.57
2018-09-18T11:51:56.149Z,33.55
2018-09-18T11:52:56.208Z,33.69
2018-09-18T11:53:56.142Z,33.57
2018-09-18T11:54:56.143Z,33.33
2018-09-18T11:55:56.137Z,33.52
2018-09-18T11:56:56.185Z,33.55
2018-09-18T11:57:56.127Z,33.64
2018-09-18T11:58:56.132Z,33.66
2018-09-18T11:59:56.121Z,33.63
2018-09-18T12:00:56.117Z,33.67
2018-09-18T12:01:56.113Z,33.86
2018-09-18T12:02:56.150Z,34.06
2018-09-18T12:03:56.108Z,34.23
2018-09-18T12:04:56.111Z,34.28
2018-09-18T12:05:56.102Z,34.25
2018-09-18T12:06:56.098Z,34.26
2018-09-18T12:07:56.107Z,34.34
2018-09-18T12:08:56.146Z,34.42
2018-09-18T12:09:56.091Z,34.32
2018-09-18T12:10:56.086Z,34.30
2018-09-18T12:11:56.085Z,34.16
2018-09-18T12:12:56.081Z,34.18
2018-09-18T12:13:56.077Z,34.30
2018-09-18T12:14:56.073Z,34.30
2018-09-18T12:15:56.076Z,34.22
2018-09-18T12:16:56.086Z,34.04
2018-09-18T12:17:56.061Z,33.85
2018-09-18T12:18:56.063Z,33.62
2018-09-18T12:19:56.073Z,33.74
2018-09-18T12:20:56.054Z,33.47
2018-09-18T12:21:56.053Z,33.71
2018-09-18T12:22:56.048Z,33.78
2018-09-18T12:23:56.046Z,33.73
2018-09-18T12:24:56.041Z,33.71
2018-09-18T12:25:56.038Z,33.47
2018-09-18T12:26:56.043Z,33.63
2018-09-18T12:27:56.192Z,33.73
2018-09-18T12:28:56.030Z,33.86
2018-09-18T12:29:56.024Z,34.00
2018-09-18T12:30:56.022Z,33.85
2018-09-18T12:31:56.021Z,33.84
2018-09-18T12:32:56.018Z,33.88
2018-09-18T12:33:56.011Z,33.84
2018-09-18T12:34:56.014Z,33.88
2018-09-18T12:35:56.008Z,33.74
2018-09-18T12:36:56.002Z,33.35
2018-09-18T12:37:55.998Z,33.41
2018-09-18T12:38:56.008Z,33.48
2018-09-18T12:39:55.991Z,33.48
2018-09-18T12:40:55.990Z,33.74
2018-09-18T12:41:56.107Z,33.95
2018-09-18T12:42:55.981Z,33.88
2018-09-18T12:43:55.988Z,34.04
2018-09-18T12:44:55.979Z,34.10
2018-09-18T12:45:55.975Z,34.06
2018-09-18T12:46:55.968Z,34.10
2018-09-18T12:47:55.977Z,34.16
2018-09-18T12:48:56.008Z,34.00
2018-09-18T12:49:56.279Z,33.95
2018-09-18T12:50:56.063Z,33.93
2018-09-18T12:51:55.949Z,34.08